Time;durP1;ratioP1;P1;durP2;ratioP2;P2;SDS_P1;SDS_P2;PMS_P1;PMS_P2;Temp;Humidity;BMP_temperature;BMP_pressure;BME280_temperature;BME280_humidity;BME280_pressure;Samples;Min_cycle;Max_cycle;Signal;HPM_P1;HPM_P2
2021/12/31 00:00:46;;;;;;;2.93;1.70;;;14.70;99.90;;;;;;5018356;28;20978;-84
2021/12/31 00:03:13;;;;;;;1.90;1.50;;;14.70;99.90;;;;;;5017771;28;20458;-84
2021/12/31 00:05:39;;;;;;;1.70;1.33;;;14.70;99.90;;;;;;5018011;28;20545;-85
2021/12/31 00:08:06;;;;;;;1.77;1.60;;;14.60;99.90;;;;;;5028459;28;20449;-84
2021/12/31 00:10:33;;;;;;;1.40;1.30;;;14.60;99.90;;;;;;5022249;28;20447;-84
2021/12/31 00:13:00;;;;;;;2.37;1.73;;;14.60;99.90;;;;;;5017186;28;20457;-84
2021/12/31 00:15:27;;;;;;;2.47;1.30;;;14.60;99.90;;;;;;5025811;28;20446;-85
2021/12/31 00:17:55;;;;;;;1.60;1.30;;;14.60;99.90;;;;;;5028652;28;20456;-84
2021/12/31 00:20:24;;;;;;;2.73;1.53;;;14.60;99.90;;;;;;5019525;28;20452;-84
2021/12/31 00:25:38;;;;;;;2.30;1.40;;;14.60;99.90;;;;;;5017799;28;21015;-84
2021/12/31 00:28:05;;;;;;;3.03;1.30;;;14.60;99.90;;;;;;5017003;28;20453;-84
2021/12/31 00:30:33;;;;;;;1.97;1.30;;;14.60;99.90;;;;;;5017439;28;20445;-85
2021/12/31 00:33:02;;;;;;;3.63;1.63;;;14.60;99.90;;;;;;5019714;28;20453;-85
2021/12/31 00:35:28;;;;;;;2.93;1.40;;;14.50;99.90;;;;;;5017040;28;21075;-84
2021/12/31 00:37:55;;;;;;;1.83;1.10;;;14.50;99.90;;;;;;5016835;28;20446;-83
2021/12/31 00:40:22;;;;;;;1.67;1.33;;;14.50;99.90;;;;;;5016903;28;20454;-84
2021/12/31 00:42:49;;;;;;;1.70;1.20;;;14.40;99.90;;;;;;5018972;28;20486;-84
2021/12/31 00:45:21;;;;;;;2.30;1.13;;;14.50;99.90;;;;;;5032971;28;20453;-84
2021/12/31 00:47:49;;;;;;;1.83;1.50;;;14.50;99.90;;;;;;5018602;28;21004;-84
2021/12/31 00:50:17;;;;;;;2.27;1.40;;;14.40;99.90;;;;;;5016913;28;20465;-83
2021/12/31 00:52:44;;;;;;;2.80;1.67;;;14.40;99.90;;;;;;5025626;28;20449;-83
2021/12/31 00:55:13;;;;;;;2.63;1.33;;;14.40;99.90;;;;;;5024829;28;20446;-84
2021/12/31 00:57:40;;;;;;;1.97;1.40;;;14.40;99.90;;;;;;5021954;28;20454;-84
2021/12/31 01:00:09;;;;;;;1.57;1.40;;;14.40;99.90;;;;;;5023924;28;20465;-84
2021/12/31 01:02:36;;;;;;;2.93;1.63;;;14.40;99.90;;;;;;5018186;28;20493;-84
2021/12/31 01:05:04;;;;;;;2.60;1.60;;;14.30;99.90;;;;;;5016846;28;20446;-85
2021/12/31 01:07:32;;;;;;;2.40;1.70;;;14.30;99.90;;;;;;5015554;28;20469;-84
2021/12/31 01:10:00;;;;;;;1.90;1.57;;;14.30;99.90;;;;;;5016089;28;21035;-84
2021/12/31 01:12:27;;;;;;;3.30;1.70;;;14.30;99.90;;;;;;5016693;28;20478;-84
2021/12/31 01:14:58;;;;;;;2.40;2.10;;;14.30;99.90;;;;;;5016929;28;20836;-83
2021/12/31 01:17:42;;;;;;;1.43;1.23;;;14.30;99.90;;;;;;5016526;28;20468;-85
2021/12/31 01:20:11;;;;;;;5.07;2.07;;;14.30;99.90;;;;;;5015461;28;20481;-84
2021/12/31 01:22:39;;;;;;;2.73;1.50;;;14.30;99.90;;;;;;5022260;28;20498;-84
2021/12/31 01:25:07;;;;;;;2.63;1.60;;;14.30;99.90;;;;;;5026611;28;20450;-85
2021/12/31 01:27:35;;;;;;;2.47;1.83;;;14.30;99.90;;;;;;5032027;28;20442;-83
2021/12/31 01:30:04;;;;;;;3.30;2.70;;;14.30;99.90;;;;;;5017124;28;20497;-84
2021/12/31 01:32:31;;;;;;;1.53;1.43;;;14.20;99.90;;;;;;5016092;28;20450;-84
2021/12/31 01:34:58;;;;;;;1.53;1.43;;;14.20;99.90;;;;;;5015950;28;20493;-83
2021/12/31 01:37:25;;;;;;;1.50;1.37;;;14.20;99.90;;;;;;5017930;28;20454;-84
2021/12/31 01:39:53;;;;;;;2.67;1.77;;;14.10;99.90;;;;;;5025719;28;20501;-84
2021/12/31 01:42:27;;;;;;;3.23;1.57;;;14.10;99.90;;;;;;5019753;28;20485;-84
2021/12/31 01:44:57;;;;;;;1.60;1.50;;;14.10;99.90;;;;;;5016568;28;20461;-84
2021/12/31 01:47:33;;;;;;;1.80;1.50;;;14.00;99.90;;;;;;5018248;28;20548;-84
2021/12/31 01:50:05;;;;;;;3.10;1.53;;;13.90;99.90;;;;;;5018030;28;20903;-83
2021/12/31 01:52:32;;;;;;;3.83;1.87;;;13.90;99.90;;;;;;5016067;28;21138;-84
2021/12/31 01:55:01;;;;;;;2.40;1.43;;;13.90;99.90;;;;;;5030647;28;20438;-83
2021/12/31 01:57:27;;;;;;;1.70;1.43;;;13.80;99.90;;;;;;5036366;28;20468;-84
2021/12/31 01:59:55;;;;;;;2.00;1.80;;;13.70;99.90;;;;;;5021078;28;20534;-83
2021/12/31 02:02:22;;;;;;;2.97;1.47;;;13.70;99.90;;;;;;5036097;28;20461;-83
2021/12/31 02:04:50;;;;;;;1.50;1.40;;;13.70;99.90;;;;;;5022275;28;20453;-83
2021/12/31 02:07:16;;;;;;;1.50;1.40;;;13.60;99.90;;;;;;5018417;28;20527;-85
2021/12/31 02:09:48;;;;;;;3.40;1.93;;;13.60;99.90;;;;;;5017572;28;20471;-84
2021/12/31 02:12:17;;;;;;;2.10;1.90;;;13.50;99.90;;;;;;5017452;28;20477;-84
2021/12/31 02:14:45;;;;;;;3.00;1.90;;;13.40;99.90;;;;;;5021321;28;20451;-85
2021/12/31 02:17:12;;;;;;;2.27;1.30;;;13.30;99.90;;;;;;5015796;28;20483;-84
2021/12/31 02:19:39;;;;;;;2.20;1.87;;;13.30;99.90;;;;;;5015409;28;20508;-85
2021/12/31 02:22:08;;;;;;;2.10;1.60;;;13.20;99.90;;;;;;5016011;28;20492;-84
2021/12/31 02:24:36;;;;;;;2.27;1.40;;;13.20;99.90;;;;;;5015252;28;20518;-83
2021/12/31 02:27:04;;;;;;;1.93;1.47;;;13.10;99.90;;;;;;5015004;28;20452;-83
2021/12/31 02:29:31;;;;;;;2.03;1.73;;;13.10;99.90;;;;;;5029738;28;20465;-84
2021/12/31 02:31:59;;;;;;;2.60;1.30;;;13.00;99.90;;;;;;5022556;28;20515;-84
2021/12/31 02:34:26;;;;;;;2.73;1.90;;;13.00;99.90;;;;;;5017650;28;20462;-84
2021/12/31 02:36:53;;;;;;;2.67;1.50;;;12.90;99.90;;;;;;5015443;28;20514;-85
2021/12/31 02:39:21;;;;;;;1.50;1.23;;;12.90;99.90;;;;;;5016242;28;20481;-85
2021/12/31 02:41:48;;;;;;;2.03;1.40;;;12.80;99.90;;;;;;5015750;28;20460;-85
2021/12/31 02:44:15;;;;;;;1.90;1.70;;;12.80;99.90;;;;;;5023956;28;20467;-84
2021/12/31 02:46:41;;;;;;;4.03;1.70;;;12.70;99.90;;;;;;5028191;28;20995;-83
2021/12/31 02:49:08;;;;;;;2.50;1.80;;;12.70;99.90;;;;;;4995689;28;20480;-84
2021/12/31 02:51:35;;;;;;;3.63;2.23;;;12.70;99.90;;;;;;5003052;28;20852;-84
2021/12/31 02:54:08;;;;;;;2.13;1.50;;;12.60;99.90;;;;;;5013276;28;20453;-84
2021/12/31 02:56:37;;;;;;;2.70;1.30;;;12.60;99.90;;;;;;5025548;28;20467;-85
2021/12/31 02:59:04;;;;;;;2.60;1.50;;;12.50;99.90;;;;;;5019594;28;20873;-85
2021/12/31 03:01:31;;;;;;;2.67;1.53;;;12.50;99.90;;;;;;5020627;28;20454;-84
2021/12/31 03:03:59;;;;;;;3.40;2.40;;;12.50;99.90;;;;;;5025117;28;20474;-83
2021/12/31 03:06:26;;;;;;;1.97;1.50;;;12.50;99.90;;;;;;5028893;28;20470;-84
2021/12/31 03:08:54;;;;;;;3.90;2.00;;;12.40;99.90;;;;;;5017707;28;20869;-85
2021/12/31 03:11:21;;;;;;;1.80;1.53;;;12.40;99.90;;;;;;5014499;28;20522;-84
2021/12/31 03:13:52;;;;;;;3.07;1.60;;;12.40;99.90;;;;;;5014584;28;20449;-85
2021/12/31 03:16:21;;;;;;;1.87;1.30;;;12.30;99.90;;;;;;5013353;28;20824;-85
2021/12/31 03:18:49;;;;;;;1.90;1.47;;;12.30;99.90;;;;;;5013942;28;20557;-84
2021/12/31 03:21:22;;;;;;;2.73;1.60;;;12.30;99.90;;;;;;5012667;28;20448;-85
2021/12/31 03:23:49;;;;;;;3.27;1.50;;;12.30;99.90;;;;;;5015182;28;20486;-84
2021/12/31 03:26:16;;;;;;;2.30;1.40;;;12.20;99.90;;;;;;5013732;28;20451;-84
2021/12/31 03:28:43;;;;;;;1.70;1.40;;;12.20;99.90;;;;;;5014426;28;20887;-84
2021/12/31 03:31:12;;;;;;;2.30;1.50;;;12.20;99.90;;;;;;5015136;28;20497;-85
2021/12/31 03:33:38;;;;;;;3.40;1.60;;;12.20;99.90;;;;;;5018425;28;20528;-85
2021/12/31 03:36:05;;;;;;;2.53;1.40;;;12.20;99.90;;;;;;5018396;28;20511;-84
2021/12/31 03:38:32;;;;;;;1.87;1.63;;;12.10;99.90;;;;;;5019881;28;20459;-84
2021/12/31 03:40:58;;;;;;;1.50;1.33;;;12.10;99.90;;;;;;5017815;28;20464;-85
2021/12/31 03:43:25;;;;;;;1.80;1.60;;;12.10;99.90;;;;;;5018564;28;20490;-84
2021/12/31 03:45:53;;;;;;;2.20;1.80;;;12.00;99.90;;;;;;5018070;28;20500;-85
2021/12/31 03:48:22;;;;;;;3.87;1.70;;;12.00;99.90;;;;;;4998205;28;20469;-85
2021/12/31 03:50:49;;;;;;;1.90;1.30;;;11.90;99.90;;;;;;4998464;28;20456;-84
2021/12/31 03:53:16;;;;;;;2.97;1.50;;;11.80;99.90;;;;;;5018120;28;20513;-84
2021/12/31 03:55:43;;;;;;;3.23;1.57;;;11.80;99.90;;;;;;5017511;28;20462;-85
2021/12/31 03:58:10;;;;;;;3.47;1.93;;;11.70;99.90;;;;;;5017517;28;20875;-84
2021/12/31 04:00:37;;;;;;;3.87;1.70;;;11.50;99.90;;;;;;5022751;28;20517;-85
2021/12/31 04:03:07;;;;;;;3.03;1.57;;;11.50;99.90;;;;;;5018549;28;20482;-84
2021/12/31 04:05:35;;;;;;;3.57;1.70;;;11.50;99.90;;;;;;5026655;28;20447;-84
2021/12/31 04:08:01;;;;;;;3.63;1.90;;;11.40;99.90;;;;;;5023992;28;20446;-84
2021/12/31 04:10:28;;;;;;;1.90;1.70;;;11.40;99.90;;;;;;5017641;28;20863;-85
2021/12/31 04:12:55;;;;;;;2.30;1.90;;;11.40;99.90;;;;;;5017611;28;20448;-84
2021/12/31 04:15:22;;;;;;;1.80;1.70;;;11.40;99.90;;;;;;5017771;28;20941;-84
2021/12/31 04:17:49;;;;;;;1.67;1.50;;;11.40;99.90;;;;;;5017261;28;20532;-84
2021/12/31 04:20:20;;;;;;;2.87;2.27;;;11.40;99.90;;;;;;5017250;28;20491;-85
2021/12/31 04:22:53;;;;;;;3.30;2.43;;;11.30;99.90;;;;;;5017513;28;20988;-85
2021/12/31 04:25:21;;;;;;;3.33;2.47;;;11.30;99.90;;;;;;5018123;28;21010;-84
2021/12/31 04:27:48;;;;;;;4.40;2.13;;;11.30;99.90;;;;;;5017977;28;20460;-84
2021/12/31 04:30:15;;;;;;;3.47;2.53;;;11.20;99.90;;;;;;5017297;28;20528;-84
2021/12/31 04:32:42;;;;;;;2.63;2.43;;;11.20;99.90;;;;;;5021366;28;20438;-84
2021/12/31 04:35:11;;;;;;;2.73;2.50;;;11.10;99.90;;;;;;5037930;28;20445;-84
2021/12/31 04:37:38;;;;;;;2.53;1.97;;;11.10;99.90;;;;;;5031127;28;20458;-84
2021/12/31 04:40:08;;;;;;;3.63;2.23;;;11.00;99.90;;;;;;5030768;28;20486;-84
2021/12/31 04:42:34;;;;;;;3.17;2.10;;;11.00;99.90;;;;;;5037147;28;20474;-84
2021/12/31 04:45:01;;;;;;;2.13;1.70;;;10.80;99.90;;;;;;5034651;28;20447;-84
2021/12/31 04:47:28;;;;;;;4.00;2.03;;;11.00;99.90;;;;;;5026653;28;20517;-84
2021/12/31 04:49:54;;;;;;;3.10;2.30;;;11.10;99.90;;;;;;5022336;28;20544;-84
2021/12/31 04:52:21;;;;;;;4.30;2.70;;;11.00;99.90;;;;;;5023700;28;20455;-84
2021/12/31 04:54:48;;;;;;;2.63;2.43;;;11.00;99.90;;;;;;5030123;28;20473;-84
2021/12/31 04:57:16;;;;;;;3.43;2.43;;;10.90;99.90;;;;;;5020125;28;20453;-84
2021/12/31 04:59:43;;;;;;;1.97;1.80;;;10.90;99.90;;;;;;5017396;28;20474;-83
2021/12/31 05:02:09;;;;;;;4.00;2.43;;;10.90;99.90;;;;;;5017759;28;20454;-84
2021/12/31 05:04:36;;;;;;;2.73;2.17;;;10.80;99.90;;;;;;5027244;28;20491;-84
2021/12/31 05:07:03;;;;;;;2.03;1.67;;;10.90;99.90;;;;;;5021083;28;20461;-85
2021/12/31 05:09:29;;;;;;;3.53;2.50;;;10.80;99.90;;;;;;5017551;28;20528;-85
2021/12/31 05:11:56;;;;;;;2.30;2.03;;;10.90;99.90;;;;;;5017091;28;20451;-84
2021/12/31 05:14:24;;;;;;;3.13;2.10;;;10.70;99.90;;;;;;5016795;28;20454;-84
2021/12/31 05:16:51;;;;;;;5.40;2.40;;;10.60;99.90;;;;;;5016776;28;20450;-84
2021/12/31 05:19:18;;;;;;;2.87;2.50;;;10.60;99.90;;;;;;5067227;23;20484;-88
2021/12/31 05:21:45;;;;;;;2.60;1.90;;;10.50;99.90;;;;;;5019858;28;20453;-91
2021/12/31 05:24:14;;;;;;;3.43;2.37;;;10.50;99.90;;;;;;5021100;28;20508;-88
2021/12/31 05:26:41;;;;;;;3.80;2.03;;;10.50;99.90;;;;;;5025328;28;20452;-89
2021/12/31 05:29:08;;;;;;;3.40;3.10;;;10.40;99.90;;;;;;5025447;28;20479;-90
2021/12/31 05:31:36;;;;;;;2.97;2.33;;;10.30;99.90;;;;;;5019050;28;20462;-89
2021/12/31 05:34:03;;;;;;;2.80;2.50;;;10.40;99.90;;;;;;5018604;28;20536;-89
2021/12/31 05:36:30;;;;;;;3.10;2.60;;;10.30;99.90;;;;;;5018466;28;20453;-89
2021/12/31 05:38:57;;;;;;;3.80;3.23;;;10.30;99.90;;;;;;5025378;28;20468;-89
2021/12/31 05:41:23;;;;;;;3.63;2.77;;;10.30;99.90;;;;;;5039115;28;20557;-90
2021/12/31 05:43:50;;;;;;;2.60;2.40;;;10.30;99.90;;;;;;5039544;28;20458;-90
2021/12/31 05:46:17;;;;;;;3.30;2.37;;;10.20;99.90;;;;;;5038372;28;20549;-89
2021/12/31 05:48:46;;;;;;;3.30;2.70;;;10.20;99.90;;;;;;5039337;28;20481;-92
2021/12/31 05:51:13;;;;;;;5.50;2.57;;;10.20;99.90;;;;;;5037656;28;20442;-90
2021/12/31 05:53:42;;;;;;;5.10;2.50;;;10.20;99.90;;;;;;5029244;28;20453;-90
2021/12/31 05:56:09;;;;;;;3.87;2.50;;;10.10;99.90;;;;;;5029116;28;20608;-90
2021/12/31 05:58:36;;;;;;;4.00;2.67;;;10.10;99.90;;;;;;5022765;28;20472;-91
2021/12/31 06:01:03;;;;;;;3.23;2.93;;;10.00;99.90;;;;;;5019589;28;20443;-91
2021/12/31 06:03:30;;;;;;;3.83;2.77;;;10.00;99.90;;;;;;5019207;28;20480;-90
2021/12/31 06:05:58;;;;;;;3.67;3.13;;;10.00;99.90;;;;;;5018010;28;20451;-91
2021/12/31 06:08:25;;;;;;;3.20;2.80;;;10.00;99.90;;;;;;5018219;28;20454;-90
2021/12/31 06:10:52;;;;;;;3.40;2.73;;;9.90;99.90;;;;;;5018024;28;20480;-90
2021/12/31 06:13:19;;;;;;;5.53;2.60;;;9.90;99.90;;;;;;5034195;28;20523;-90
2021/12/31 06:15:48;;;;;;;5.70;3.10;;;9.90;99.90;;;;;;5019966;28;20446;-91
2021/12/31 06:18:15;;;;;;;5.10;3.17;;;9.90;99.90;;;;;;5018764;28;20458;-91
2021/12/31 06:20:43;;;;;;;5.70;3.57;;;9.90;99.90;;;;;;5030056;28;20510;-91
2021/12/31 06:23:11;;;;;;;3.53;2.80;;;9.80;99.90;;;;;;5037304;28;20512;-91
2021/12/31 06:25:39;;;;;;;3.93;3.10;;;9.80;99.90;;;;;;5022695;28;20457;-90
2021/12/31 06:28:06;;;;;;;3.30;2.27;;;9.80;99.90;;;;;;5037241;28;20458;-92
2021/12/31 06:30:33;;;;;;;5.90;3.53;;;9.80;99.90;;;;;;5035613;28;20538;-91
2021/12/31 06:33:00;;;;;;;4.43;3.43;;;9.70;99.90;;;;;;5035937;28;20438;-92
2021/12/31 06:35:27;;;;;;;4.20;3.20;;;9.60;99.90;;;;;;5030631;28;20546;-90
2021/12/31 06:37:57;;;;;;;3.77;3.37;;;9.50;99.90;;;;;;5019964;28;20454;-90
2021/12/31 06:40:25;;;;;;;4.20;2.93;;;9.50;99.90;;;;;;5018440;28;20466;-91
2021/12/31 06:42:52;;;;;;;4.13;2.77;;;9.50;99.90;;;;;;5018754;28;20454;-90
2021/12/31 06:45:19;;;;;;;3.93;3.60;;;9.50;99.90;;;;;;5018273;28;20454;-90
2021/12/31 06:47:46;;;;;;;5.37;2.90;;;9.50;99.90;;;;;;5027824;28;20441;-91
2021/12/31 06:50:13;;;;;;;5.37;3.40;;;9.40;99.90;;;;;;5018028;28;20470;-91
2021/12/31 06:52:42;;;;;;;3.40;3.10;;;9.50;99.90;;;;;;5017309;28;20454;-91
2021/12/31 06:55:10;;;;;;;3.50;3.00;;;9.50;99.90;;;;;;5016509;28;20513;-90
2021/12/31 06:57:38;;;;;;;4.87;3.63;;;9.40;99.90;;;;;;5017204;28;20459;-90
2021/12/31 07:00:29;;;;;;;4.00;3.40;;;9.40;99.90;;;;;;5018409;28;20470;-90
2021/12/31 07:03:07;;;;;;;4.33;3.83;;;9.30;99.90;;;;;;5020140;28;20907;-91
2021/12/31 07:05:35;;;;;;;4.73;4.30;;;9.20;99.90;;;;;;5036707;28;20442;-92
2021/12/31 07:08:02;;;;;;;4.87;4.00;;;9.30;99.90;;;;;;5022015;28;20546;-92
2021/12/31 07:10:46;;;;;;;5.17;4.00;;;9.20;99.90;;;;;;5018103;28;20455;-90
2021/12/31 07:13:14;;;;;;;6.53;4.37;;;9.20;99.90;;;;;;5017936;28;20419;-90
2021/12/31 07:15:44;;;;;;;6.23;4.23;;;9.30;99.90;;;;;;5019697;28;20449;-91
2021/12/31 07:18:11;;;;;;;5.63;4.00;;;9.30;99.90;;;;;;5022990;28;20450;-90
2021/12/31 07:20:38;;;;;;;6.07;4.00;;;9.30;99.90;;;;;;5020225;28;20442;-90
2021/12/31 07:23:06;;;;;;;5.50;3.90;;;9.30;99.90;;;;;;5020345;28;20453;-90
2021/12/31 07:25:33;;;;;;;5.87;4.47;;;9.20;99.90;;;;;;5036800;28;20474;-90
2021/12/31 07:28:00;;;;;;;3.70;3.40;;;9.20;99.90;;;;;;5029321;28;20511;-91
2021/12/31 07:30:29;;;;;;;5.20;3.93;;;9.30;99.90;;;;;;5026420;28;20449;-90
2021/12/31 07:32:56;;;;;;;6.03;4.73;;;9.30;99.90;;;;;;5020433;28;20541;-90
2021/12/31 07:35:24;;;;;;;5.50;4.90;;;9.30;99.90;;;;;;5019056;28;20991;-90
2021/12/31 07:37:52;;;;;;;5.27;4.73;;;9.30;99.90;;;;;;5018003;28;20446;-91
2021/12/31 07:40:25;;;;;;;5.37;4.97;;;9.30;99.90;;;;;;5017030;28;20478;-90
2021/12/31 07:42:52;;;;;;;4.53;4.13;;;9.20;99.90;;;;;;5034763;28;20445;-91
2021/12/31 07:45:20;;;;;;;5.87;5.27;;;9.20;99.90;;;;;;5037830;28;20529;-91
2021/12/31 07:47:49;;;;;;;10.03;4.30;;;9.20;99.90;;;;;;5037718;28;20433;-92
2021/12/31 07:50:16;;;;;;;4.43;4.10;;;9.20;99.90;;;;;;5036791;28;20486;-91
2021/12/31 07:52:43;;;;;;;6.07;4.17;;;9.30;99.90;;;;;;5020034;28;20449;-90
2021/12/31 07:55:10;;;;;;;4.33;3.93;;;9.30;99.90;;;;;;5037237;28;20460;-90
2021/12/31 07:57:38;;;;;;;5.93;4.43;;;9.40;99.90;;;;;;5037007;28;20478;-92
2021/12/31 08:00:10;;;;;;;4.20;3.80;;;9.40;99.90;;;;;;5036408;28;20486;-91
2021/12/31 08:02:39;;;;;;;4.93;4.00;;;9.40;99.90;;;;;;5022487;28;20465;-91
2021/12/31 08:05:09;;;;;;;5.00;4.37;;;9.40;99.90;;;;;;5027821;28;20513;-91
2021/12/31 08:07:36;;;;;;;5.57;4.97;;;9.40;99.90;;;;;;5019251;28;20454;-90
2021/12/31 08:10:06;;;;;;;6.50;5.90;;;9.40;99.90;;;;;;5016938;28;20470;-90
2021/12/31 08:12:36;;;;;;;6.33;4.97;;;9.50;99.90;;;;;;5026102;28;20477;-89
2021/12/31 08:15:03;;;;;;;5.17;4.60;;;9.50;99.90;;;;;;5035196;28;20437;-90
2021/12/31 08:17:30;;;;;;;7.07;4.83;;;9.50;99.90;;;;;;5025605;28;20446;-90
2021/12/31 08:19:59;;;;;;;6.07;4.10;;;9.60;99.90;;;;;;5022624;28;20520;-90
2021/12/31 08:22:31;;;;;;;4.40;4.00;;;9.60;99.90;;;;;;5021796;28;20435;-91
2021/12/31 08:25:01;;;;;;;5.90;4.83;;;9.70;99.90;;;;;;5019962;28;20532;-91
2021/12/31 08:27:28;;;;;;;4.50;4.03;;;9.70;99.90;;;;;;5022137;28;20469;-91
2021/12/31 08:29:55;;;;;;;4.83;4.43;;;9.80;99.90;;;;;;5033452;28;20470;-91
2021/12/31 08:32:22;;;;;;;4.33;3.87;;;9.90;99.90;;;;;;5038084;28;20433;-91
2021/12/31 08:34:49;;;;;;;4.20;3.80;;;9.90;99.90;;;;;;5031319;28;20520;-91
2021/12/31 08:37:16;;;;;;;5.70;3.90;;;10.00;99.90;;;;;;5023169;28;20474;-90
2021/12/31 08:39:44;;;;;;;4.23;3.83;;;10.00;99.90;;;;;;5024689;28;20466;-90
2021/12/31 08:42:11;;;;;;;4.67;4.27;;;10.10;99.90;;;;;;5030875;28;20509;-90
2021/12/31 08:44:38;;;;;;;3.93;3.63;;;10.10;99.90;;;;;;5031144;28;20478;-90
2021/12/31 08:47:05;;;;;;;6.10;3.20;;;10.10;99.90;;;;;;5040384;28;20435;-90
2021/12/31 08:49:32;;;;;;;5.40;4.47;;;10.10;99.90;;;;;;5034289;28;20484;-89
2021/12/31 08:52:00;;;;;;;6.57;4.17;;;10.10;99.90;;;;;;5039251;28;20496;-90
2021/12/31 08:54:30;;;;;;;3.50;3.20;;;10.30;99.90;;;;;;5040940;28;20506;-91
2021/12/31 08:57:00;;;;;;;3.53;3.23;;;10.80;99.90;;;;;;5039857;28;20438;-90
2021/12/31 08:59:27;;;;;;;4.53;3.60;;;11.10;99.90;;;;;;5032249;28;20450;-93
2021/12/31 09:01:54;;;;;;;3.60;3.30;;;11.40;99.90;;;;;;5035227;28;20458;-90
2021/12/31 09:04:42;;;;;;;3.23;2.83;;;11.90;99.90;;;;;;5032348;28;20476;-89
2021/12/31 09:07:09;;;;;;;4.27;3.50;;;12.40;99.90;;;;;;5033432;28;20515;-90
2021/12/31 09:09:36;;;;;;;3.77;3.37;;;12.30;99.90;;;;;;5033151;28;20560;-91
2021/12/31 09:12:05;;;;;;;4.83;3.27;;;12.10;99.90;;;;;;5029463;28;20558;-90
2021/12/31 09:14:34;;;;;;;3.70;3.40;;;12.00;99.90;;;;;;5024201;28;20534;-90
2021/12/31 09:17:01;;;;;;;3.43;3.07;;;11.80;99.90;;;;;;5025453;28;20442;-89
2021/12/31 09:19:29;;;;;;;3.50;3.03;;;11.90;99.90;;;;;;5025856;28;20509;-90
2021/12/31 09:21:57;;;;;;;3.90;3.43;;;12.00;99.90;;;;;;5028158;28;20606;-90
2021/12/31 09:24:24;;;;;;;3.90;3.00;;;12.00;99.90;;;;;;5024502;28;20558;-91
2021/12/31 09:26:51;;;;;;;3.70;3.40;;;12.00;99.90;;;;;;5023061;28;20454;-90
2021/12/31 09:29:21;;;;;;;4.20;3.33;;;12.10;99.90;;;;;;5022550;28;20470;-90
2021/12/31 09:31:48;;;;;;;4.60;3.63;;;12.00;99.90;;;;;;5024213;28;20474;-90
2021/12/31 09:34:15;;;;;;;3.83;2.93;;;11.90;99.90;;;;;;5020816;28;20449;-90
2021/12/31 09:36:42;;;;;;;4.43;3.27;;;11.80;99.90;;;;;;5020237;28;20459;-90
2021/12/31 09:39:10;;;;;;;4.93;3.30;;;11.90;99.90;;;;;;5019067;28;20459;-90
2021/12/31 09:41:37;;;;;;;3.03;2.73;;;12.00;99.90;;;;;;5019322;28;20461;-90
2021/12/31 09:44:04;;;;;;;3.00;2.80;;;12.10;99.90;;;;;;5019768;28;20486;-90
2021/12/31 09:46:34;;;;;;;4.00;3.17;;;12.10;99.90;;;;;;5001753;28;20460;-90
2021/12/31 09:49:02;;;;;;;3.00;2.60;;;12.10;99.90;;;;;;5001077;28;20495;-90
2021/12/31 09:51:29;;;;;;;3.23;2.93;;;12.20;99.90;;;;;;5019201;28;20448;-90
2021/12/31 09:53:59;;;;;;;2.73;2.50;;;12.40;99.90;;;;;;5020018;28;20443;-90
2021/12/31 09:56:26;;;;;;;3.43;3.10;;;12.60;99.90;;;;;;5020655;28;20460;-90
2021/12/31 09:58:55;;;;;;;3.20;2.43;;;12.80;99.90;;;;;;5018768;28;20456;-90
2021/12/31 10:01:22;;;;;;;2.60;2.40;;;13.40;99.90;;;;;;5019813;28;20524;-90
2021/12/31 10:04:00;;;;;;;3.70;2.90;;;14.00;99.90;;;;;;5018511;28;20456;-90
2021/12/31 10:06:28;;;;;;;2.60;2.40;;;14.60;99.90;;;;;;5031438;28;20457;-89
2021/12/31 10:08:58;;;;;;;3.47;2.70;;;14.90;99.90;;;;;;5028518;28;20553;-89
2021/12/31 10:11:25;;;;;;;2.97;2.43;;;15.20;99.90;;;;;;5024674;28;20462;-83
2021/12/31 10:13:55;;;;;;;2.63;2.10;;;16.00;99.90;;;;;;5031503;28;20456;-79
2021/12/31 10:16:24;;;;;;;3.20;2.30;;;16.80;99.90;;;;;;5028071;28;20449;-79
2021/12/31 10:19:06;;;;;;;3.30;2.53;;;17.40;99.90;;;;;;5023371;28;20478;-79
2021/12/31 10:21:38;;;;;;;2.30;2.10;;;17.90;99.90;;;;;;5022914;28;20522;-79
2021/12/31 10:24:20;;;;;;;3.70;2.30;;;18.60;99.90;;;;;;5020011;28;20474;-88
2021/12/31 10:26:47;;;;;;;3.33;2.57;;;18.90;99.20;;;;;;4996934;28;20830;-86
2021/12/31 10:29:15;;;;;;;2.50;2.30;;;19.10;98.80;;;;;;4996879;28;20474;-87
2021/12/31 10:31:43;;;;;;;2.70;2.50;;;19.70;98.30;;;;;;5011384;28;20449;-87
2021/12/31 10:34:25;;;;;;;2.50;2.17;;;20.50;97.00;;;;;;4996304;28;20501;-86
2021/12/31 10:40:40;;;;;;;2.37;2.17;;;22.00;93.70;;;;;;4976960;28;20534;-88
2021/12/31 10:43:23;;;;;;;2.80;2.50;;;22.10;91.70;;;;;;4940215;29;20454;-87
2021/12/31 10:49:07;;;;;;;2.57;2.37;;;23.80;90.30;;;;;;4965637;23;20483;-86
2021/12/31 10:54:31;;;;;;;3.50;2.60;;;23.40;88.20;;;;;;5030685;28;20446;-85
2021/12/31 10:57:01;;;;;;;2.60;1.90;;;23.40;87.80;;;;;;5029435;28;20453;-86
2021/12/31 10:59:37;;;;;;;2.40;2.20;;;23.90;87.10;;;;;;5021748;28;21033;-89
2021/12/31 11:02:05;;;;;;;3.20;2.90;;;24.60;86.10;;;;;;5027637;28;20477;-87
2021/12/31 11:04:35;;;;;;;3.37;2.33;;;25.80;81.50;;;;;;5016184;28;20577;-87
2021/12/31 11:07:22;;;;;;;3.57;2.73;;;26.10;79.00;;;;;;5016676;28;20453;-88
2021/12/31 11:10:21;;;;;;;2.60;2.30;;;26.30;78.90;;;;;;5018390;28;20466;-86
2021/12/31 11:12:51;;;;;;;2.97;2.70;;;27.00;75.90;;;;;;5016185;28;20454;-90
2021/12/31 11:15:18;;;;;;;3.67;2.50;;;28.00;72.20;;;;;;5027917;28;20437;-88
2021/12/31 11:31:24;;;;;;;3.10;2.67;;;30.00;59.90;;;;;;5004336;28;20439;-92
2021/12/31 11:34:28;;;;;;;2.60;2.40;;;29.00;62.10;;;;;;5003701;28;20510;-92
2021/12/31 11:36:56;;;;;;;3.50;3.20;;;29.80;60.00;;;;;;4991889;28;20487;-88
2021/12/31 11:39:27;;;;;;;3.07;2.87;;;29.30;60.70;;;;;;4996120;28;20538;-89
2021/12/31 11:41:55;;;;;;;2.70;2.50;;;29.90;59.40;;;;;;4997623;28;20451;-89
2021/12/31 11:51:04;;;;;;;2.13;2.03;;;29.60;58.40;;;;;;4935264;29;20540;-89
2021/12/31 11:54:10;;;;;;;1.97;1.87;;;28.40;61.20;;;;;;4945727;29;20531;-91
2021/12/31 12:47:35;;;;;;;2.70;2.50;;;26.90;62.40;;;;;;4833554;29;20482;-92
2021/12/31 12:50:08;;;;;;;2.53;2.10;;;26.10;63.70;;;;;;4860130;29;20473;-92
2021/12/31 12:52:35;;;;;;;2.63;2.43;;;25.30;66.20;;;;;;4976747;28;20470;-93
2021/12/31 12:55:09;;;;;;;3.20;3.00;;;24.60;68.30;;;;;;5008324;28;20450;-92
2021/12/31 12:57:38;;;;;;;3.40;2.63;;;23.80;70.10;;;;;;5016613;28;20479;-93
2021/12/31 13:00:08;;;;;;;3.63;3.33;;;22.60;72.80;;;;;;5015838;28;20432;-93
2021/12/31 13:02:42;;;;;;;2.93;2.70;;;22.60;75.80;;;;;;5004617;28;20454;-93
2021/12/31 13:05:11;;;;;;;4.40;3.20;;;22.30;76.10;;;;;;5002399;28;20495;-93
2021/12/31 13:07:38;;;;;;;3.30;2.57;;;21.90;78.40;;;;;;5004809;28;20482;-92
2021/12/31 13:10:07;;;;;;;2.93;2.67;;;21.70;79.20;;;;;;5001906;28;20453;-92
2021/12/31 13:12:34;;;;;;;3.27;2.97;;;21.70;79.40;;;;;;4998811;28;20457;-92
2021/12/31 13:15:08;;;;;;;3.67;2.67;;;21.50;80.80;;;;;;4999448;28;20452;-92
2021/12/31 13:17:36;;;;;;;4.43;3.07;;;21.20;81.70;;;;;;5003783;28;20483;-93
2021/12/31 13:20:08;;;;;;;2.93;2.73;;;20.90;82.40;;;;;;5005301;28;20498;-91
2021/12/31 13:22:38;;;;;;;4.70;3.20;;;20.60;83.80;;;;;;5001195;28;20536;-91
2021/12/31 13:25:07;;;;;;;4.80;3.33;;;20.30;85.70;;;;;;5001714;28;20569;-91
2021/12/31 13:27:36;;;;;;;4.07;3.67;;;20.00;86.50;;;;;;5000559;28;20505;-91
2021/12/31 13:30:07;;;;;;;3.40;3.10;;;19.80;87.50;;;;;;5002894;28;20455;-91
2021/12/31 13:32:38;;;;;;;4.20;3.90;;;19.60;88.50;;;;;;5020005;28;20458;-94
2021/12/31 13:35:15;;;;;;;3.90;3.50;;;19.50;90.00;;;;;;5008821;28;20435;-93
2021/12/31 13:37:45;;;;;;;4.70;3.00;;;20.50;89.70;;;;;;5017073;28;20462;-93
2021/12/31 13:40:19;;;;;;;3.20;2.90;;;21.80;84.70;;;;;;5019576;28;20440;-93
2021/12/31 13:43:02;;;;;;;2.70;2.40;;;21.80;81.80;;;;;;5014308;28;20466;-92
2021/12/31 13:45:30;;;;;;;2.53;2.33;;;21.20;82.30;;;;;;5005832;28;20479;-92
2021/12/31 13:48:10;;;;;;;3.37;2.50;;;20.60;84.10;;;;;;5008282;28;20483;-92
2021/12/31 13:50:39;;;;;;;2.63;2.17;;;20.20;85.90;;;;;;5003068;28;20839;-92
2021/12/31 13:53:06;;;;;;;3.07;2.30;;;19.80;87.10;;;;;;5001335;28;20513;-92
2021/12/31 13:55:35;;;;;;;3.70;2.13;;;19.50;89.00;;;;;;5010041;28;20506;-92
2021/12/31 13:58:11;;;;;;;2.27;2.07;;;19.40;89.90;;;;;;5006466;28;20458;-92
2021/12/31 14:00:41;;;;;;;2.50;2.30;;;19.30;89.80;;;;;;4999410;28;20486;-92
2021/12/31 14:03:12;;;;;;;2.60;2.40;;;19.60;89.60;;;;;;4999731;28;20821;-92
2021/12/31 14:05:47;;;;;;;3.30;3.00;;;19.80;89.30;;;;;;4998852;28;20476;-92
2021/12/31 14:08:29;;;;;;;2.57;2.37;;;19.70;89.40;;;;;;4998504;28;20465;-89
2021/12/31 14:10:56;;;;;;;2.40;2.20;;;19.50;89.70;;;;;;4999091;28;20950;-92
2021/12/31 14:13:28;;;;;;;3.20;3.00;;;19.10;90.20;;;;;;4997462;28;20895;-91
2021/12/31 14:16:25;;;;;;;3.00;2.70;;;18.90;90.60;;;;;;5001912;28;21019;-92
2021/12/31 14:18:57;;;;;;;4.13;3.57;;;18.70;90.90;;;;;;4957035;29;20436;-91
2021/12/31 14:21:26;;;;;;;4.27;3.00;;;18.90;91.50;;;;;;4989467;28;20803;-91